sensor_id;sensor_type;location;lat;lon;timestamp;P1;durP1;ratioP1;P2;durP2;ratioP2
966;SDS011;56108;48.730;9.304;2023-04-06T00:00:17;15.93;;;13.60;;
966;SDS011;56108;48.730;9.304;2023-04-06T00:02:27;18.88;;;15.35;;
966;SDS011;56108;48.730;9.304;2023-04-06T00:04:35;18.55;;;16.05;;
966;SDS011;56108;48.730;9.304;2023-04-06T00:06:43;20.25;;;16.80;;
966;SDS011;56108;48.730;9.304;2023-04-06T00:08:55;18.08;;;15.63;;
966;SDS011;56108;48.730;9.304;2023-04-06T00:11:03;19.02;;;16.70;;
966;SDS011;56108;48.730;9.304;2023-04-06T00:13:11;21.50;;;16.35;;
966;SDS011;56108;48.730;9.304;2023-04-06T00:15:19;22.33;;;17.42;;
966;SDS011;56108;48.730;9.304;2023-04-06T00:17:28;20.55;;;16.30;;
966;SDS011;56108;48.730;9.304;2023-04-06T00:19:36;18.58;;;16.60;;
966;SDS011;56108;48.730;9.304;2023-04-06T00:21:44;20.20;;;16.35;;
966;SDS011;56108;48.730;9.304;2023-04-06T00:23:55;20.00;;;16.05;;
966;SDS011;56108;48.730;9.304;2023-04-06T00:26:03;19.95;;;16.90;;
966;SDS011;56108;48.730;9.304;2023-04-06T00:28:11;19.90;;;17.00;;
966;SDS011;56108;48.730;9.304;2023-04-06T00:30:20;18.08;;;15.40;;
966;SDS011;56108;48.730;9.304;2023-04-06T00:32:30;19.80;;;16.05;;
966;SDS011;56108;48.730;9.304;2023-04-06T00:34:39;18.30;;;15.95;;
966;SDS011;56108;48.730;9.304;2023-04-06T00:36:47;17.08;;;15.27;;
966;SDS011;56108;48.730;9.304;2023-04-06T00:39:12;19.38;;;14.75;;
966;SDS011;56108;48.730;9.304;2023-04-06T00:41:40;20.25;;;16.35;;
966;SDS011;56108;48.730;9.304;2023-04-06T00:44:09;18.98;;;15.77;;
966;SDS011;56108;48.730;9.304;2023-04-06T00:46:17;19.88;;;16.83;;
966;SDS011;56108;48.730;9.304;2023-04-06T00:48:25;17.15;;;15.00;;
966;SDS011;56108;48.730;9.304;2023-04-06T00:50:36;17.20;;;15.40;;
966;SDS011;56108;48.730;9.304;2023-04-06T00:52:45;19.75;;;15.80;;
966;SDS011;56108;48.730;9.304;2023-04-06T00:54:58;20.15;;;15.70;;
966;SDS011;56108;48.730;9.304;2023-04-06T00:57:06;21.23;;;17.50;;
966;SDS011;56108;48.730;9.304;2023-04-06T00:59:15;20.00;;;16.90;;
966;SDS011;56108;48.730;9.304;2023-04-06T01:01:23;19.73;;;17.63;;
966;SDS011;56108;48.730;9.304;2023-04-06T01:03:37;22.35;;;17.08;;
966;SDS011;56108;48.730;9.304;2023-04-06T01:05:49;19.23;;;16.15;;
966;SDS011;56108;48.730;9.304;2023-04-06T01:08:10;34.83;;;17.67;;
966;SDS011;56108;48.730;9.304;2023-04-06T01:10:25;17.30;;;15.10;;
966;SDS011;56108;48.730;9.304;2023-04-06T01:12:59;20.65;;;16.50;;
966;SDS011;56108;48.730;9.304;2023-04-06T01:15:23;21.30;;;16.42;;
966;SDS011;56108;48.730;9.304;2023-04-06T01:17:31;19.27;;;17.25;;
966;SDS011;56108;48.730;9.304;2023-04-06T01:19:46;18.52;;;16.65;;
966;SDS011;56108;48.730;9.304;2023-04-06T01:22:03;18.40;;;16.48;;
966;SDS011;56108;48.730;9.304;2023-04-06T01:24:23;20.08;;;15.90;;
966;SDS011;56108;48.730;9.304;2023-04-06T01:26:52;20.27;;;15.10;;
966;SDS011;56108;48.730;9.304;2023-04-06T01:29:03;19.38;;;16.42;;
966;SDS011;56108;48.730;9.304;2023-04-06T01:31:12;18.45;;;15.90;;
966;SDS011;56108;48.730;9.304;2023-04-06T01:33:24;18.75;;;16.58;;
966;SDS011;56108;48.730;9.304;2023-04-06T01:35:43;17.40;;;15.32;;
966;SDS011;56108;48.730;9.304;2023-04-06T01:37:54;19.48;;;15.10;;
966;SDS011;56108;48.730;9.304;2023-04-06T01:40:11;20.23;;;16.52;;
966;SDS011;56108;48.730;9.304;2023-04-06T01:42:25;17.10;;;15.30;;
966;SDS011;56108;48.730;9.304;2023-04-06T01:44:35;21.58;;;17.70;;
966;SDS011;56108;48.730;9.304;2023-04-06T01:46:47;20.65;;;17.52;;
966;SDS011;56108;48.730;9.304;2023-04-06T01:48:56;20.77;;;16.67;;
966;SDS011;56108;48.730;9.304;2023-04-06T01:51:10;18.13;;;15.82;;
966;SDS011;56108;48.730;9.304;2023-04-06T01:53:29;20.02;;;16.98;;
966;SDS011;56108;48.730;9.304;2023-04-06T01:55:45;25.05;;;19.27;;
966;SDS011;56108;48.730;9.304;2023-04-06T01:58:00;21.25;;;17.75;;
966;SDS011;56108;48.730;9.304;2023-04-06T02:00:14;20.55;;;17.45;;
966;SDS011;56108;48.730;9.304;2023-04-06T02:02:29;23.45;;;18.55;;
966;SDS011;56108;48.730;9.304;2023-04-06T02:04:42;20.80;;;17.70;;
966;SDS011;56108;48.730;9.304;2023-04-06T02:06:51;22.50;;;17.85;;
966;SDS011;56108;48.730;9.304;2023-04-06T02:09:02;22.67;;;17.80;;
966;SDS011;56108;48.730;9.304;2023-04-06T02:11:13;20.70;;;18.15;;
966;SDS011;56108;48.730;9.304;2023-04-06T02:13:26;20.63;;;17.85;;
966;SDS011;56108;48.730;9.304;2023-04-06T02:15:35;22.25;;;18.58;;
966;SDS011;56108;48.730;9.304;2023-04-06T02:17:43;19.70;;;17.65;;
966;SDS011;56108;48.730;9.304;2023-04-06T02:19:51;20.08;;;16.67;;
966;SDS011;56108;48.730;9.304;2023-04-06T02:21:59;23.08;;;18.80;;
966;SDS011;56108;48.730;9.304;2023-04-06T02:24:09;21.60;;;18.27;;
966;SDS011;56108;48.730;9.304;2023-04-06T02:26:20;18.88;;;16.60;;
966;SDS011;56108;48.730;9.304;2023-04-06T02:28:28;20.30;;;17.45;;
966;SDS011;56108;48.730;9.304;2023-04-06T02:30:39;25.55;;;18.40;;
966;SDS011;56108;48.730;9.304;2023-04-06T02:32:47;22.23;;;17.80;;
966;SDS011;56108;48.730;9.304;2023-04-06T02:34:56;18.90;;;16.58;;
966;SDS011;56108;48.730;9.304;2023-04-06T02:37:06;21.05;;;17.73;;
966;SDS011;56108;48.730;9.304;2023-04-06T02:39:14;19.92;;;17.10;;
966;SDS011;56108;48.730;9.304;2023-04-06T02:41:26;20.60;;;18.40;;
966;SDS011;56108;48.730;9.304;2023-04-06T02:43:35;19.98;;;17.40;;
966;SDS011;56108;48.730;9.304;2023-04-06T02:45:52;20.77;;;17.92;;
966;SDS011;56108;48.730;9.304;2023-04-06T02:48:02;19.85;;;16.67;;
966;SDS011;56108;48.730;9.304;2023-04-06T02:50:11;21.80;;;17.60;;
966;SDS011;56108;48.730;9.304;2023-04-06T02:52:27;19.98;;;17.45;;
966;SDS011;56108;48.730;9.304;2023-04-06T02:54:35;20.05;;;16.55;;
966;SDS011;56108;48.730;9.304;2023-04-06T02:56:46;22.27;;;18.98;;
966;SDS011;56108;48.730;9.304;2023-04-06T02:58:56;21.42;;;17.23;;
966;SDS011;56108;48.730;9.304;2023-04-06T03:01:08;20.17;;;16.10;;
966;SDS011;56108;48.730;9.304;2023-04-06T03:03:18;18.65;;;15.98;;
966;SDS011;56108;48.730;9.304;2023-04-06T03:05:26;19.58;;;16.48;;
966;SDS011;56108;48.730;9.304;2023-04-06T03:07:35;20.65;;;17.15;;
966;SDS011;56108;48.730;9.304;2023-04-06T03:09:48;20.05;;;17.30;;
966;SDS011;56108;48.730;9.304;2023-04-06T03:11:59;21.33;;;17.77;;
966;SDS011;56108;48.730;9.304;2023-04-06T03:14:18;22.88;;;17.15;;
966;SDS011;56108;48.730;9.304;2023-04-06T03:16:27;20.27;;;17.67;;
966;SDS011;56108;48.730;9.304;2023-04-06T03:18:37;20.95;;;17.67;;
966;SDS011;56108;48.730;9.304;2023-04-06T03:20:45;22.15;;;18.80;;
966;SDS011;56108;48.730;9.304;2023-04-06T03:22:56;21.00;;;17.88;;
966;SDS011;56108;48.730;9.304;2023-04-06T03:25:08;19.35;;;17.30;;
966;SDS011;56108;48.730;9.304;2023-04-06T03:27:22;20.67;;;17.52;;
966;SDS011;56108;48.730;9.304;2023-04-06T03:29:31;22.42;;;17.70;;
966;SDS011;56108;48.730;9.304;2023-04-06T03:31:41;22.80;;;17.02;;
966;SDS011;56108;48.730;9.304;2023-04-06T03:34:09;21.70;;;17.50;;
966;SDS011;56108;48.730;9.304;2023-04-06T03:36:17;20.77;;;18.58;;
966;SDS011;56108;48.730;9.304;2023-04-06T03:38:25;21.75;;;17.65;;
966;SDS011;56108;48.730;9.304;2023-04-06T03:40:33;22.13;;;18.65;;
966;SDS011;56108;48.730;9.304;2023-04-06T03:42:44;19.88;;;16.25;;
966;SDS011;56108;48.730;9.304;2023-04-06T03:44:53;19.58;;;15.73;;
966;SDS011;56108;48.730;9.304;2023-04-06T03:47:02;17.67;;;15.35;;
966;SDS011;56108;48.730;9.304;2023-04-06T03:49:10;21.88;;;18.45;;
966;SDS011;56108;48.730;9.304;2023-04-06T03:51:22;21.67;;;16.77;;
966;SDS011;56108;48.730;9.304;2023-04-06T03:53:30;22.20;;;17.52;;
966;SDS011;56108;48.730;9.304;2023-04-06T03:55:48;17.90;;;15.57;;
966;SDS011;56108;48.730;9.304;2023-04-06T03:57:59;20.73;;;16.85;;
966;SDS011;56108;48.730;9.304;2023-04-06T04:00:07;20.02;;;15.85;;
966;SDS011;56108;48.730;9.304;2023-04-06T04:02:16;20.20;;;16.25;;
966;SDS011;56108;48.730;9.304;2023-04-06T04:04:25;20.80;;;16.13;;
966;SDS011;56108;48.730;9.304;2023-04-06T04:06:35;19.17;;;16.77;;
966;SDS011;56108;48.730;9.304;2023-04-06T04:08:45;20.02;;;15.95;;
966;SDS011;56108;48.730;9.304;2023-04-06T04:10:53;18.90;;;16.55;;
966;SDS011;56108;48.730;9.304;2023-04-06T04:13:04;18.05;;;16.02;;
966;SDS011;56108;48.730;9.304;2023-04-06T04:15:14;21.08;;;16.58;;
966;SDS011;56108;48.730;9.304;2023-04-06T04:17:22;20.65;;;17.08;;
966;SDS011;56108;48.730;9.304;2023-04-06T04:19:32;20.98;;;17.63;;
966;SDS011;56108;48.730;9.304;2023-04-06T04:21:43;20.27;;;16.08;;
966;SDS011;56108;48.730;9.304;2023-04-06T04:23:57;19.73;;;15.52;;
966;SDS011;56108;48.730;9.304;2023-04-06T04:26:06;17.67;;;15.80;;
966;SDS011;56108;48.730;9.304;2023-04-06T04:28:16;20.02;;;16.50;;
966;SDS011;56108;48.730;9.304;2023-04-06T04:30:24;20.20;;;16.67;;
966;SDS011;56108;48.730;9.304;2023-04-06T04:32:33;17.60;;;14.90;;
966;SDS011;56108;48.730;9.304;2023-04-06T04:34:43;20.13;;;15.07;;
966;SDS011;56108;48.730;9.304;2023-04-06T04:37:01;17.88;;;14.75;;
966;SDS011;56108;48.730;9.304;2023-04-06T04:39:21;20.48;;;16.13;;
966;SDS011;56108;48.730;9.304;2023-04-06T04:41:37;19.75;;;16.48;;
966;SDS011;56108;48.730;9.304;2023-04-06T04:43:51;21.73;;;17.10;;
966;SDS011;56108;48.730;9.304;2023-04-06T04:46:02;20.42;;;16.40;;
966;SDS011;56108;48.730;9.304;2023-04-06T04:48:17;20.83;;;15.55;;
966;SDS011;56108;48.730;9.304;2023-04-06T04:50:34;18.80;;;16.42;;
966;SDS011;56108;48.730;9.304;2023-04-06T04:52:43;18.15;;;15.82;;
966;SDS011;56108;48.730;9.304;2023-04-06T04:54:54;20.90;;;17.05;;
966;SDS011;56108;48.730;9.304;2023-04-06T04:57:05;22.25;;;17.85;;
966;SDS011;56108;48.730;9.304;2023-04-06T04:59:20;19.77;;;16.20;;
966;SDS011;56108;48.730;9.304;2023-04-06T05:01:35;16.70;;;14.88;;
966;SDS011;56108;48.730;9.304;2023-04-06T05:04:01;23.48;;;15.98;;
966;SDS011;56108;48.730;9.304;2023-04-06T05:06:10;21.10;;;15.90;;
966;SDS011;56108;48.730;9.304;2023-04-06T05:08:21;18.00;;;15.45;;
966;SDS011;56108;48.730;9.304;2023-04-06T05:10:30;21.55;;;17.48;;
966;SDS011;56108;48.730;9.304;2023-04-06T05:12:40;28.63;;;17.05;;
966;SDS011;56108;48.730;9.304;2023-04-06T05:14:51;24.08;;;18.10;;
966;SDS011;56108;48.730;9.304;2023-04-06T05:17:00;26.73;;;20.80;;
966;SDS011;56108;48.730;9.304;2023-04-06T05:19:08;26.55;;;20.70;;
966;SDS011;56108;48.730;9.304;2023-04-06T05:21:21;24.52;;;19.42;;
966;SDS011;56108;48.730;9.304;2023-04-06T05:23:38;20.92;;;16.35;;
966;SDS011;56108;48.730;9.304;2023-04-06T05:25:46;18.95;;;15.75;;
966;SDS011;56108;48.730;9.304;2023-04-06T05:27:58;22.42;;;17.30;;
966;SDS011;56108;48.730;9.304;2023-04-06T05:30:14;21.60;;;16.67;;
966;SDS011;56108;48.730;9.304;2023-04-06T05:32:24;21.85;;;16.08;;
966;SDS011;56108;48.730;9.304;2023-04-06T05:34:33;19.45;;;15.73;;
966;SDS011;56108;48.730;9.304;2023-04-06T05:36:42;17.38;;;15.32;;
966;SDS011;56108;48.730;9.304;2023-04-06T05:38:57;18.73;;;16.60;;
966;SDS011;56108;48.730;9.304;2023-04-06T05:41:17;21.30;;;15.75;;
966;SDS011;56108;48.730;9.304;2023-04-06T05:43:29;17.25;;;15.35;;
966;SDS011;56108;48.730;9.304;2023-04-06T05:45:44;20.40;;;15.85;;
966;SDS011;56108;48.730;9.304;2023-04-06T05:47:53;16.40;;;14.55;;
966;SDS011;56108;48.730;9.304;2023-04-06T05:50:05;22.38;;;16.02;;
966;SDS011;56108;48.730;9.304;2023-04-06T05:52:16;16.67;;;14.25;;
966;SDS011;56108;48.730;9.304;2023-04-06T05:54:26;22.65;;;15.52;;
966;SDS011;56108;48.730;9.304;2023-04-06T05:56:38;18.70;;;15.90;;
966;SDS011;56108;48.730;9.304;2023-04-06T05:58:48;18.67;;;15.75;;
966;SDS011;56108;48.730;9.304;2023-04-06T06:01:05;18.38;;;15.60;;
966;SDS011;56108;48.730;9.304;2023-04-06T06:03:47;17.38;;;15.57;;
966;SDS011;56108;48.730;9.304;2023-04-06T06:06:03;16.60;;;14.85;;
966;SDS011;56108;48.730;9.304;2023-04-06T06:08:23;20.40;;;16.25;;
966;SDS011;56108;48.730;9.304;2023-04-06T06:10:31;16.38;;;14.68;;
966;SDS011;56108;48.730;9.304;2023-04-06T06:12:41;17.88;;;15.80;;
966;SDS011;56108;48.730;9.304;2023-04-06T06:14:54;17.00;;;15.20;;
966;SDS011;56108;48.730;9.304;2023-04-06T06:17:07;16.95;;;15.35;;
966;SDS011;56108;48.730;9.304;2023-04-06T06:19:17;16.88;;;15.18;;
966;SDS011;56108;48.730;9.304;2023-04-06T06:21:30;15.52;;;14.02;;
966;SDS011;56108;48.730;9.304;2023-04-06T06:23:39;17.30;;;15.25;;
966;SDS011;56108;48.730;9.304;2023-04-06T06:25:51;15.75;;;14.00;;
966;SDS011;56108;48.730;9.304;2023-04-06T06:28:03;17.40;;;15.70;;
966;SDS011;56108;48.730;9.304;2023-04-06T06:30:13;16.17;;;14.70;;
966;SDS011;56108;48.730;9.304;2023-04-06T06:32:25;15.50;;;14.10;;
966;SDS011;56108;48.730;9.304;2023-04-06T06:34:34;17.30;;;15.60;;
966;SDS011;56108;48.730;9.304;2023-04-06T06:36:44;16.73;;;15.05;;
966;SDS011;56108;48.730;9.304;2023-04-06T06:38:55;16.60;;;15.20;;
966;SDS011;56108;48.730;9.304;2023-04-06T06:41:05;17.15;;;15.55;;
966;SDS011;56108;48.730;9.304;2023-04-06T06:43:14;16.52;;;15.10;;
966;SDS011;56108;48.730;9.304;2023-04-06T06:45:35;15.98;;;14.57;;
966;SDS011;56108;48.730;9.304;2023-04-06T06:47:45;16.85;;;15.35;;
966;SDS011;56108;48.730;9.304;2023-04-06T06:49:57;18.02;;;16.42;;
966;SDS011;56108;48.730;9.304;2023-04-06T06:52:07;18.95;;;17.13;;
966;SDS011;56108;48.730;9.304;2023-04-06T06:54:15;17.40;;;15.70;;
966;SDS011;56108;48.730;9.304;2023-04-06T06:56:23;18.40;;;16.60;;
966;SDS011;56108;48.730;9.304;2023-04-06T06:58:33;20.60;;;18.60;;
966;SDS011;56108;48.730;9.304;2023-04-06T07:00:41;20.70;;;17.88;;
966;SDS011;56108;48.730;9.304;2023-04-06T07:02:51;20.58;;;18.48;;
966;SDS011;56108;48.730;9.304;2023-04-06T07:05:00;19.85;;;17.77;;
966;SDS011;56108;48.730;9.304;2023-04-06T07:07:28;17.67;;;16.08;;
966;SDS011;56108;48.730;9.304;2023-04-06T07:09:36;19.15;;;17.27;;
966;SDS011;56108;48.730;9.304;2023-04-06T07:11:45;18.13;;;16.60;;
966;SDS011;56108;48.730;9.304;2023-04-06T07:13:53;19.02;;;17.27;;
966;SDS011;56108;48.730;9.304;2023-04-06T07:16:01;18.38;;;16.80;;
966;SDS011;56108;48.730;9.304;2023-04-06T07:18:12;17.02;;;15.63;;
966;SDS011;56108;48.730;9.304;2023-04-06T07:20:20;16.98;;;15.38;;
966;SDS011;56108;48.730;9.304;2023-04-06T07:22:28;17.33;;;15.88;;
966;SDS011;56108;48.730;9.304;2023-04-06T07:24:36;19.02;;;17.35;;
966;SDS011;56108;48.730;9.304;2023-04-06T07:26:44;17.50;;;16.00;;
966;SDS011;56108;48.730;9.304;2023-04-06T07:28:54;17.55;;;16.05;;
966;SDS011;56108;48.730;9.304;2023-04-06T07:31:03;18.38;;;16.83;;
966;SDS011;56108;48.730;9.304;2023-04-06T07:33:14;17.70;;;16.20;;
966;SDS011;56108;48.730;9.304;2023-04-06T07:35:23;17.27;;;15.73;;
966;SDS011;56108;48.730;9.304;2023-04-06T07:37:32;18.90;;;17.17;;
966;SDS011;56108;48.730;9.304;2023-04-06T07:39:40;18.42;;;16.83;;
966;SDS011;56108;48.730;9.304;2023-04-06T07:41:49;19.48;;;17.60;;
966;SDS011;56108;48.730;9.304;2023-04-06T07:43:57;17.00;;;15.50;;
966;SDS011;56108;48.730;9.304;2023-04-06T07:46:05;17.98;;;16.17;;
966;SDS011;56108;48.730;9.304;2023-04-06T07:48:17;17.90;;;16.20;;
966;SDS011;56108;48.730;9.304;2023-04-06T07:50:25;17.63;;;16.02;;
966;SDS011;56108;48.730;9.304;2023-04-06T07:52:34;16.60;;;15.00;;
966;SDS011;56108;48.730;9.304;2023-04-06T07:54:44;17.90;;;16.20;;
966;SDS011;56108;48.730;9.304;2023-04-06T07:56:54;18.27;;;16.45;;
966;SDS011;56108;48.730;9.304;2023-04-06T07:59:02;21.40;;;17.20;;
966;SDS011;56108;48.730;9.304;2023-04-06T08:01:10;18.67;;;16.98;;
966;SDS011;56108;48.730;9.304;2023-04-06T08:03:21;20.55;;;18.60;;
966;SDS011;56108;48.730;9.304;2023-04-06T08:05:30;21.05;;;18.30;;
966;SDS011;56108;48.730;9.304;2023-04-06T08:07:38;20.42;;;18.35;;
966;SDS011;56108;48.730;9.304;2023-04-06T08:09:47;18.60;;;16.60;;
966;SDS011;56108;48.730;9.304;2023-04-06T08:11:55;19.52;;;17.45;;
966;SDS011;56108;48.730;9.304;2023-04-06T08:14:06;18.55;;;16.75;;
966;SDS011;56108;48.730;9.304;2023-04-06T08:16:15;18.15;;;16.35;;
966;SDS011;56108;48.730;9.304;2023-04-06T08:18:25;18.90;;;17.00;;
966;SDS011;56108;48.730;9.304;2023-04-06T08:20:34;18.42;;;16.45;;
966;SDS011;56108;48.730;9.304;2023-04-06T08:22:42;19.27;;;15.38;;
966;SDS011;56108;48.730;9.304;2023-04-06T08:24:51;17.95;;;16.05;;
966;SDS011;56108;48.730;9.304;2023-04-06T08:26:59;18.25;;;16.38;;
966;SDS011;56108;48.730;9.304;2023-04-06T08:29:08;18.45;;;16.17;;
966;SDS011;56108;48.730;9.304;2023-04-06T08:31:16;18.48;;;16.50;;
966;SDS011;56108;48.730;9.304;2023-04-06T08:33:28;16.08;;;14.38;;
966;SDS011;56108;48.730;9.304;2023-04-06T08:35:36;16.80;;;14.85;;
966;SDS011;56108;48.730;9.304;2023-04-06T08:37:44;16.15;;;14.55;;
966;SDS011;56108;48.730;9.304;2023-04-06T08:39:52;16.02;;;14.43;;
966;SDS011;56108;48.730;9.304;2023-04-06T08:42:01;16.65;;;14.95;;
966;SDS011;56108;48.730;9.304;2023-04-06T08:44:10;15.43;;;13.93;;
966;SDS011;56108;48.730;9.304;2023-04-06T08:46:20;17.17;;;15.35;;
966;SDS011;56108;48.730;9.304;2023-04-06T08:48:36;16.55;;;14.32;;
966;SDS011;56108;48.730;9.304;2023-04-06T08:50:45;16.90;;;15.10;;
966;SDS011;56108;48.730;9.304;2023-04-06T08:52:54;17.75;;;15.00;;
966;SDS011;56108;48.730;9.304;2023-04-06T08:55:03;16.75;;;15.15;;
966;SDS011;56108;48.730;9.304;2023-04-06T08:57:12;17.58;;;15.77;;
966;SDS011;56108;48.730;9.304;2023-04-06T08:59:21;16.75;;;14.85;;
966;SDS011;56108;48.730;9.304;2023-04-06T09:01:31;18.98;;;15.38;;
966;SDS011;56108;48.730;9.304;2023-04-06T09:03:49;16.83;;;14.45;;
966;SDS011;56108;48.730;9.304;2023-04-06T09:05:58;18.33;;;16.70;;
966;SDS011;56108;48.730;9.304;2023-04-06T09:08:07;18.42;;;16.52;;
966;SDS011;56108;48.730;9.304;2023-04-06T09:10:15;16.20;;;14.70;;
966;SDS011;56108;48.730;9.304;2023-04-06T09:12:25;18.45;;;16.50;;
966;SDS011;56108;48.730;9.304;2023-04-06T09:14:34;17.27;;;15.52;;
966;SDS011;56108;48.730;9.304;2023-04-06T09:16:44;16.08;;;14.45;;
966;SDS011;56108;48.730;9.304;2023-04-06T09:19:03;18.52;;;16.73;;
966;SDS011;56108;48.730;9.304;2023-04-06T09:21:12;19.42;;;16.52;;
966;SDS011;56108;48.730;9.304;2023-04-06T09:23:20;16.42;;;14.82;;
966;SDS011;56108;48.730;9.304;2023-04-06T09:25:29;17.98;;;16.08;;
966;SDS011;56108;48.730;9.304;2023-04-06T09:27:37;18.17;;;16.38;;
966;SDS011;56108;48.730;9.304;2023-04-06T09:29:48;15.55;;;14.05;;
966;SDS011;56108;48.730;9.304;2023-04-06T09:32:01;17.88;;;16.08;;
966;SDS011;56108;48.730;9.304;2023-04-06T09:34:19;16.92;;;14.57;;
966;SDS011;56108;48.730;9.304;2023-04-06T09:36:31;15.40;;;13.82;;
966;SDS011;56108;48.730;9.304;2023-04-06T09:38:52;15.65;;;14.05;;
966;SDS011;56108;48.730;9.304;2023-04-06T09:41:02;16.25;;;13.38;;
966;SDS011;56108;48.730;9.304;2023-04-06T09:43:10;19.27;;;14.90;;
966;SDS011;56108;48.730;9.304;2023-04-06T09:45:18;17.50;;;14.75;;
966;SDS011;56108;48.730;9.304;2023-04-06T09:47:26;15.98;;;14.32;;
966;SDS011;56108;48.730;9.304;2023-04-06T09:49:37;16.13;;;14.52;;
966;SDS011;56108;48.730;9.304;2023-04-06T09:51:47;14.45;;;12.98;;
966;SDS011;56108;48.730;9.304;2023-04-06T09:54:01;15.90;;;14.30;;
966;SDS011;56108;48.730;9.304;2023-04-06T09:56:11;15.10;;;13.55;;
966;SDS011;56108;48.730;9.304;2023-04-06T09:58:25;15.70;;;14.40;;
966;SDS011;56108;48.730;9.304;2023-04-06T10:00:34;14.55;;;13.25;;
966;SDS011;56108;48.730;9.304;2023-04-06T10:02:50;14.90;;;13.52;;
966;SDS011;56108;48.730;9.304;2023-04-06T10:05:08;14.85;;;13.35;;
966;SDS011;56108;48.730;9.304;2023-04-06T10:07:20;14.20;;;12.27;;
966;SDS011;56108;48.730;9.304;2023-04-06T10:09:29;12.88;;;11.77;;
966;SDS011;56108;48.730;9.304;2023-04-06T10:11:40;12.38;;;11.27;;
966;SDS011;56108;48.730;9.304;2023-04-06T10:13:49;12.35;;;11.25;;
966;SDS011;56108;48.730;9.304;2023-04-06T10:15:58;11.93;;;10.80;;
966;SDS011;56108;48.730;9.304;2023-04-06T10:18:07;12.95;;;11.65;;
966;SDS011;56108;48.730;9.304;2023-04-06T10:20:21;12.13;;;11.13;;
966;SDS011;56108;48.730;9.304;2023-04-06T10:22:32;13.93;;;12.63;;
966;SDS011;56108;48.730;9.304;2023-04-06T10:24:46;13.55;;;12.20;;
966;SDS011;56108;48.730;9.304;2023-04-06T10:26:56;13.05;;;11.80;;
966;SDS011;56108;48.730;9.304;2023-04-06T10:29:06;12.57;;;11.48;;
966;SDS011;56108;48.730;9.304;2023-04-06T10:31:15;10.80;;;9.70;;
966;SDS011;56108;48.730;9.304;2023-04-06T10:33:32;11.75;;;10.63;;
966;SDS011;56108;48.730;9.304;2023-04-06T10:35:43;10.35;;;9.55;;
966;SDS011;56108;48.730;9.304;2023-04-06T10:37:52;11.70;;;10.35;;
966;SDS011;56108;48.730;9.304;2023-04-06T10:40:08;12.45;;;11.35;;
966;SDS011;56108;48.730;9.304;2023-04-06T10:42:35;11.18;;;10.13;;
966;SDS011;56108;48.730;9.304;2023-04-06T10:44:44;12.45;;;11.30;;
966;SDS011;56108;48.730;9.304;2023-04-06T10:46:54;11.70;;;10.70;;
966;SDS011;56108;48.730;9.304;2023-04-06T10:49:11;11.50;;;10.15;;
966;SDS011;56108;48.730;9.304;2023-04-06T10:51:24;10.90;;;9.90;;
966;SDS011;56108;48.730;9.304;2023-04-06T10:53:33;10.77;;;9.68;;
966;SDS011;56108;48.730;9.304;2023-04-06T10:55:42;12.05;;;10.95;;
966;SDS011;56108;48.730;9.304;2023-04-06T10:57:52;11.45;;;10.35;;
966;SDS011;56108;48.730;9.304;2023-04-06T11:00:00;11.77;;;10.45;;
966;SDS011;56108;48.730;9.304;2023-04-06T11:02:08;10.40;;;9.50;;
966;SDS011;56108;48.730;9.304;2023-04-06T11:04:27;10.25;;;9.35;;
966;SDS011;56108;48.730;9.304;2023-04-06T11:06:38;11.35;;;10.30;;
966;SDS011;56108;48.730;9.304;2023-04-06T11:08:46;10.85;;;9.75;;
966;SDS011;56108;48.730;9.304;2023-04-06T11:11:06;10.30;;;9.40;;
966;SDS011;56108;48.730;9.304;2023-04-06T11:13:15;11.18;;;10.10;;
966;SDS011;56108;48.730;9.304;2023-04-06T11:15:23;10.15;;;9.15;;
966;SDS011;56108;48.730;9.304;2023-04-06T11:17:33;9.93;;;8.93;;
966;SDS011;56108;48.730;9.304;2023-04-06T11:19:43;9.65;;;8.63;;
966;SDS011;56108;48.730;9.304;2023-04-06T11:21:54;9.40;;;8.50;;
966;SDS011;56108;48.730;9.304;2023-04-06T11:24:04;11.27;;;9.45;;
966;SDS011;56108;48.730;9.304;2023-04-06T11:26:13;10.25;;;9.05;;
966;SDS011;56108;48.730;9.304;2023-04-06T11:28:22;9.95;;;8.95;;
966;SDS011;56108;48.730;9.304;2023-04-06T11:30:30;9.30;;;8.40;;
966;SDS011;56108;48.730;9.304;2023-04-06T11:32:39;10.85;;;9.48;;
966;SDS011;56108;48.730;9.304;2023-04-06T11:34:49;9.50;;;8.57;;
966;SDS011;56108;48.730;9.304;2023-04-06T11:37:00;11.38;;;10.35;;
966;SDS011;56108;48.730;9.304;2023-04-06T11:39:10;10.27;;;9.35;;
966;SDS011;56108;48.730;9.304;2023-04-06T11:41:19;10.85;;;8.48;;
966;SDS011;56108;48.730;9.304;2023-04-06T11:43:34;9.05;;;8.25;;
966;SDS011;56108;48.730;9.304;2023-04-06T11:45:42;9.07;;;8.20;;
966;SDS011;56108;48.730;9.304;2023-04-06T11:47:57;13.73;;;9.60;;
966;SDS011;56108;48.730;9.304;2023-04-06T11:50:10;10.07;;;8.25;;
966;SDS011;56108;48.730;9.304;2023-04-06T11:52:22;8.07;;;7.28;;
966;SDS011;56108;48.730;9.304;2023-04-06T11:54:32;6.85;;;6.22;;
966;SDS011;56108;48.730;9.304;2023-04-06T11:56:41;8.30;;;7.60;;
966;SDS011;56108;48.730;9.304;2023-04-06T11:58:49;8.38;;;7.57;;
966;SDS011;56108;48.730;9.304;2023-04-06T12:01:02;9.25;;;7.47;;
966;SDS011;56108;48.730;9.304;2023-04-06T12:03:11;7.63;;;6.93;;
966;SDS011;56108;48.730;9.304;2023-04-06T12:05:19;8.30;;;7.25;;
966;SDS011;56108;48.730;9.304;2023-04-06T12:07:31;8.90;;;8.00;;
966;SDS011;56108;48.730;9.304;2023-04-06T12:09:39;8.82;;;8.00;;
966;SDS011;56108;48.730;9.304;2023-04-06T12:11:47;8.57;;;7.68;;
966;SDS011;56108;48.730;9.304;2023-04-06T12:13:55;9.73;;;8.20;;
966;SDS011;56108;48.730;9.304;2023-04-06T12:16:06;8.70;;;7.90;;
966;SDS011;56108;48.730;9.304;2023-04-06T12:18:14;8.07;;;7.30;;
966;SDS011;56108;48.730;9.304;2023-04-06T12:20:23;7.40;;;6.70;;
966;SDS011;56108;48.730;9.304;2023-04-06T12:22:34;6.22;;;5.63;;
966;SDS011;56108;48.730;9.304;2023-04-06T12:24:42;7.00;;;6.40;;
966;SDS011;56108;48.730;9.304;2023-04-06T12:26:50;7.53;;;6.72;;
966;SDS011;56108;48.730;9.304;2023-04-06T12:29:13;6.85;;;6.35;;
966;SDS011;56108;48.730;9.304;2023-04-06T12:31:21;6.85;;;6.25;;
966;SDS011;56108;48.730;9.304;2023-04-06T12:33:30;6.90;;;6.20;;
966;SDS011;56108;48.730;9.304;2023-04-06T12:35:39;6.15;;;5.55;;
966;SDS011;56108;48.730;9.304;2023-04-06T12:37:50;6.68;;;6.07;;
966;SDS011;56108;48.730;9.304;2023-04-06T12:39:58;6.68;;;6.07;;
966;SDS011;56108;48.730;9.304;2023-04-06T12:42:09;6.88;;;6.20;;
966;SDS011;56108;48.730;9.304;2023-04-06T12:44:18;6.38;;;5.88;;
966;SDS011;56108;48.730;9.304;2023-04-06T12:46:29;6.10;;;5.60;;
966;SDS011;56108;48.730;9.304;2023-04-06T12:48:38;7.10;;;6.50;;
966;SDS011;56108;48.730;9.304;2023-04-06T12:50:53;6.97;;;5.97;;
966;SDS011;56108;48.730;9.304;2023-04-06T12:53:04;7.28;;;6.28;;
966;SDS011;56108;48.730;9.304;2023-04-06T12:55:13;5.63;;;5.00;;
966;SDS011;56108;48.730;9.304;2023-04-06T12:57:21;6.47;;;5.80;;
966;SDS011;56108;48.730;9.304;2023-04-06T12:59:30;6.15;;;5.55;;
966;SDS011;56108;48.730;9.304;2023-04-06T13:01:40;5.45;;;5.05;;
966;SDS011;56108;48.730;9.304;2023-04-06T13:03:49;6.75;;;6.13;;
966;SDS011;56108;48.730;9.304;2023-04-06T13:05:58;9.02;;;6.25;;
966;SDS011;56108;48.730;9.304;2023-04-06T13:08:10;6.85;;;5.93;;
966;SDS011;56108;48.730;9.304;2023-04-06T13:10:18;6.00;;;5.40;;
966;SDS011;56108;48.730;9.304;2023-04-06T13:12:26;5.88;;;5.38;;
966;SDS011;56108;48.730;9.304;2023-04-06T13:14:34;5.80;;;4.90;;